Time;durP1;ratioP1;P1;durP2;ratioP2;P2;SDS_P1;SDS_P2;PMS_P1;PMS_P2;Temp;Humidity;BMP_temperature;BMP_pressure;BME280_temperature;BME280_humidity;BME280_pressure;Samples;Min_cycle;Max_cycle;Signal;HPM_P1;HPM_P2
2021/08/20 00:00:03;;;;;;;86.38;50.92;;;;;;;;;;2089697;28;20259;-47
2021/08/20 00:01:12;;;;;;;90.45;53.67;;;;;;;;;;2088722;28;20286;-47
2021/08/20 00:02:12;;;;;;;83.28;51.75;;;;;;;;;;2087844;28;20701;-47
2021/08/20 00:03:13;;;;;;;84.95;51.50;;;;;;;;;;2086933;28;20651;-49
2021/08/20 00:04:13;;;;;;;89.88;51.20;;;;;;;;;;2086789;28;20167;-48
2021/08/20 00:05:13;;;;;;;91.60;52.97;;;;;;;;;;2086445;28;20606;-48
2021/08/20 00:06:13;;;;;;;88.43;52.05;;;;;;;;;;2087107;28;20190;-46
2021/08/20 00:07:14;;;;;;;81.18;50.40;;;;;;;;;;2087422;28;20240;-50
2021/08/20 00:08:14;;;;;;;82.53;50.60;;;;;;;;;;2087573;28;20180;-47
2021/08/20 00:09:14;;;;;;;87.13;50.83;;;;;;;;;;2089150;28;20229;-46
2021/08/20 00:10:16;;;;;;;79.45;50.20;;;;;;;;;;2088991;28;20194;-47
2021/08/20 00:11:16;;;;;;;86.57;51.00;;;;;;;;;;2089382;28;20215;-48
2021/08/20 00:12:16;;;;;;;92.68;53.03;;;;;;;;;;2083797;28;20168;-48
2021/08/20 00:13:17;;;;;;;83.32;49.58;;;;;;;;;;2087012;28;20164;-46
2021/08/20 00:14:17;;;;;;;87.78;50.55;;;;;;;;;;2088657;28;20176;-46
2021/08/20 00:15:17;;;;;;;83.15;50.45;;;;;;;;;;2089792;28;20732;-46
2021/08/20 00:16:18;;;;;;;86.15;50.22;;;;;;;;;;2089216;28;20237;-48
2021/08/20 00:17:18;;;;;;;86.80;50.55;;;;;;;;;;2089170;28;20170;-46
2021/08/20 00:18:18;;;;;;;79.53;48.67;;;;;;;;;;2088692;28;20554;-46
2021/08/20 00:19:18;;;;;;;78.60;48.95;;;;;;;;;;2089035;28;20176;-45
2021/08/20 00:20:19;;;;;;;80.63;47.92;;;;;;;;;;2083057;28;20259;-54
2021/08/20 00:21:20;;;;;;;76.25;47.97;;;;;;;;;;2079531;28;20172;-49
2021/08/20 00:22:21;;;;;;;80.18;48.30;;;;;;;;;;2080796;28;20926;-46
2021/08/20 00:23:22;;;;;;;78.40;48.38;;;;;;;;;;2082866;28;20183;-47
2021/08/20 00:24:22;;;;;;;78.80;48.20;;;;;;;;;;2088057;28;20400;-47
2021/08/20 00:25:22;;;;;;;78.68;47.60;;;;;;;;;;2082164;28;20229;-45
2021/08/20 00:26:23;;;;;;;77.45;48.08;;;;;;;;;;2087637;28;20179;-47
2021/08/20 00:27:23;;;;;;;75.35;46.33;;;;;;;;;;2080054;28;20180;-49
2021/08/20 00:28:23;;;;;;;67.97;45.33;;;;;;;;;;2079815;28;20283;-49
2021/08/20 00:29:23;;;;;;;70.43;45.90;;;;;;;;;;2082923;28;20194;-48
2021/08/20 00:30:24;;;;;;;66.70;44.10;;;;;;;;;;2080319;28;20188;-49
2021/08/20 00:31:24;;;;;;;66.45;43.42;;;;;;;;;;2084692;28;20214;-45
2021/08/20 00:32:24;;;;;;;67.38;44.03;;;;;;;;;;2088798;28;20175;-47
2021/08/20 00:33:26;;;;;;;70.47;44.17;;;;;;;;;;2088432;28;20175;-46
2021/08/20 00:34:27;;;;;;;60.97;44.03;;;;;;;;;;2088606;28;20175;-46
2021/08/20 00:35:27;;;;;;;65.93;44.47;;;;;;;;;;2087614;28;20631;-46
2021/08/20 00:36:27;;;;;;;63.25;42.00;;;;;;;;;;2087636;28;20202;-48
2021/08/20 00:37:28;;;;;;;63.63;42.35;;;;;;;;;;2066683;28;20214;-46
2021/08/20 00:38:29;;;;;;;73.68;44.05;;;;;;;;;;2072376;28;20181;-47
2021/08/20 00:39:29;;;;;;;68.60;43.60;;;;;;;;;;2074043;28;20161;-47
2021/08/20 00:40:30;;;;;;;66.68;44.08;;;;;;;;;;2079975;28;20168;-49
2021/08/20 00:41:30;;;;;;;71.40;44.03;;;;;;;;;;2081634;28;20624;-50
2021/08/20 00:42:31;;;;;;;65.78;43.60;;;;;;;;;;2088829;28;20266;-45
2021/08/20 00:43:33;;;;;;;63.45;43.13;;;;;;;;;;2088893;28;20166;-49
2021/08/20 00:44:34;;;;;;;67.93;44.22;;;;;;;;;;2088857;28;20255;-49
2021/08/20 00:45:34;;;;;;;66.78;43.08;;;;;;;;;;2088476;28;20183;-47
2021/08/20 00:46:35;;;;;;;71.55;43.63;;;;;;;;;;2089011;28;20647;-52
2021/08/20 00:47:35;;;;;;;66.95;43.10;;;;;;;;;;2089563;28;20162;-48
2021/08/20 00:48:35;;;;;;;67.45;43.75;;;;;;;;;;2080928;28;20227;-47
2021/08/20 00:49:36;;;;;;;67.07;42.90;;;;;;;;;;2088898;28;20553;-45
2021/08/20 00:50:36;;;;;;;65.53;42.92;;;;;;;;;;2096974;28;20277;-51
2021/08/20 00:51:37;;;;;;;66.85;43.38;;;;;;;;;;2088759;28;20285;-48
2021/08/20 00:52:38;;;;;;;69.15;45.25;;;;;;;;;;2072944;28;20602;-46
2021/08/20 00:53:38;;;;;;;69.25;43.33;;;;;;;;;;2079473;28;20180;-50
2021/08/20 00:54:39;;;;;;;75.88;46.35;;;;;;;;;;2074179;28;20176;-49
2021/08/20 00:55:39;;;;;;;72.65;45.40;;;;;;;;;;2089298;28;20742;-50
2021/08/20 00:56:43;;;;;;;69.82;44.28;;;;;;;;;;2090338;28;20202;-46
2021/08/20 00:57:48;;;;;;;75.82;45.95;;;;;;;;;;2082473;28;20617;-48
2021/08/20 00:58:51;;;;;;;69.03;43.42;;;;;;;;;;2082840;28;20548;-48
2021/08/20 00:59:53;;;;;;;77.72;47.20;;;;;;;;;;2091543;28;20186;-53
2021/08/20 01:00:56;;;;;;;72.43;44.92;;;;;;;;;;2084146;28;20171;-49
2021/08/20 01:01:56;;;;;;;78.57;48.05;;;;;;;;;;2089507;28;20187;-51
2021/08/20 01:02:56;;;;;;;75.80;45.47;;;;;;;;;;2091086;28;20164;-49
2021/08/20 01:03:56;;;;;;;80.90;47.97;;;;;;;;;;2091144;28;20262;-51
2021/08/20 01:04:57;;;;;;;71.75;44.30;;;;;;;;;;2083313;28;20235;-47
2021/08/20 01:05:58;;;;;;;72.88;46.15;;;;;;;;;;2073443;28;20185;-47
2021/08/20 01:07:01;;;;;;;71.20;45.72;;;;;;;;;;2072139;28;20185;-46
2021/08/20 01:08:02;;;;;;;78.28;46.15;;;;;;;;;;2072940;28;20169;-50
2021/08/20 01:09:02;;;;;;;78.40;47.30;;;;;;;;;;2080486;28;20583;-48
2021/08/20 01:10:04;;;;;;;76.65;45.40;;;;;;;;;;2077500;28;20263;-50
2021/08/20 01:11:06;;;;;;;69.93;43.55;;;;;;;;;;2068773;28;20228;-47
2021/08/20 01:12:06;;;;;;;75.13;46.25;;;;;;;;;;2074364;28;20173;-51
2021/08/20 01:13:09;;;;;;;68.47;43.17;;;;;;;;;;2078715;28;20191;-49
2021/08/20 01:14:16;;;;;;;69.63;43.47;;;;;;;;;;2079477;28;20827;-50
2021/08/20 01:15:16;;;;;;;64.13;42.00;;;;;;;;;;2074157;28;20169;-49
2021/08/20 01:16:22;;;;;;;66.68;42.80;;;;;;;;;;2072139;28;20169;-47
2021/08/20 01:17:24;;;;;;;60.08;40.58;;;;;;;;;;2072822;28;20181;-48
2021/08/20 01:18:29;;;;;;;66.40;42.58;;;;;;;;;;2076395;28;20218;-47
2021/08/20 01:19:36;;;;;;;66.82;43.50;;;;;;;;;;2074238;28;20301;-48
2021/08/20 01:20:37;;;;;;;56.53;39.83;;;;;;;;;;2081312;28;20172;-49
2021/08/20 01:21:37;;;;;;;68.55;43.80;;;;;;;;;;2080545;28;20187;-48
2021/08/20 01:22:40;;;;;;;61.25;41.97;;;;;;;;;;2073228;28;20256;-46
2021/08/20 01:23:42;;;;;;;60.47;42.80;;;;;;;;;;2068016;28;20178;-49
2021/08/20 01:24:45;;;;;;;65.03;40.55;;;;;;;;;;2072218;28;20173;-50
2021/08/20 01:25:45;;;;;;;65.88;41.97;;;;;;;;;;2065794;28;20233;-45
2021/08/20 01:26:47;;;;;;;59.42;40.53;;;;;;;;;;2079451;28;20212;-51
2021/08/20 01:28:02;;;;;;;59.65;40.08;;;;;;;;;;2076606;28;20185;-54
2021/08/20 01:29:03;;;;;;;57.60;40.50;;;;;;;;;;2083446;28;20168;-55
2021/08/20 01:30:05;;;;;;;60.10;38.90;;;;;;;;;;2093430;28;20177;-53
2021/08/20 01:31:08;;;;;;;53.03;36.08;;;;;;;;;;2082953;28;20204;-50
2021/08/20 01:32:10;;;;;;;59.03;38.95;;;;;;;;;;2074961;28;20165;-48
2021/08/20 01:33:13;;;;;;;53.95;36.28;;;;;;;;;;2081983;28;20179;-45
2021/08/20 01:34:14;;;;;;;53.72;38.25;;;;;;;;;;2082481;28;20165;-45
2021/08/20 01:35:14;;;;;;;56.97;38.95;;;;;;;;;;2081980;28;20180;-45
2021/08/20 01:36:14;;;;;;;54.90;39.42;;;;;;;;;;2089580;28;20175;-54
2021/08/20 01:37:16;;;;;;;56.83;39.08;;;;;;;;;;2079913;28;20164;-48
2021/08/20 01:38:16;;;;;;;52.17;37.50;;;;;;;;;;2072605;28;20192;-45
2021/08/20 01:39:16;;;;;;;53.20;37.53;;;;;;;;;;2080096;28;20168;-47
2021/08/20 01:40:17;;;;;;;50.78;35.10;;;;;;;;;;2083220;28;20703;-45
2021/08/20 01:41:18;;;;;;;52.85;37.63;;;;;;;;;;2081325;28;20222;-47
2021/08/20 01:42:19;;;;;;;51.72;36.42;;;;;;;;;;2069964;28;20169;-48
2021/08/20 01:43:21;;;;;;;51.60;37.00;;;;;;;;;;2080453;28;20676;-50
2021/08/20 01:44:21;;;;;;;48.65;36.70;;;;;;;;;;2082612;28;20168;-46
2021/08/20 01:45:22;;;;;;;53.70;36.28;;;;;;;;;;2066717;28;20220;-46
2021/08/20 01:46:22;;;;;;;46.45;34.90;;;;;;;;;;2079416;28;20540;-51
2021/08/20 01:47:22;;;;;;;49.60;35.63;;;;;;;;;;2081396;28;20661;-51
2021/08/20 01:48:22;;;;;;;50.60;35.40;;;;;;;;;;2080562;28;20676;-48
2021/08/20 01:49:23;;;;;;;51.40;35.65;;;;;;;;;;2074912;28;20169;-47
2021/08/20 01:50:23;;;;;;;43.67;34.10;;;;;;;;;;2070922;28;20180;-45
2021/08/20 01:51:25;;;;;;;47.47;35.65;;;;;;;;;;2080900;28;20204;-47
2021/08/20 01:52:25;;;;;;;50.28;35.30;;;;;;;;;;2080956;28;20196;-48
2021/08/20 01:53:26;;;;;;;54.83;35.65;;;;;;;;;;2073627;28;20169;-50
2021/08/20 01:54:27;;;;;;;54.40;37.97;;;;;;;;;;2072771;28;20173;-48
2021/08/20 01:55:27;;;;;;;51.38;36.42;;;;;;;;;;2088231;28;20583;-48
2021/08/20 01:56:28;;;;;;;53.67;35.78;;;;;;;;;;2081625;28;20540;-50
2021/08/20 01:57:29;;;;;;;50.60;35.92;;;;;;;;;;2073227;28;20220;-52
2021/08/20 01:58:29;;;;;;;51.10;37.10;;;;;;;;;;2072655;28;20339;-46
2021/08/20 01:59:29;;;;;;;49.78;35.58;;;;;;;;;;2080734;28;20251;-51
2021/08/20 02:00:30;;;;;;;47.95;34.47;;;;;;;;;;2072738;28;20179;-49
2021/08/20 02:01:31;;;;;;;50.60;34.92;;;;;;;;;;2082097;28;20180;-47
2021/08/20 02:02:31;;;;;;;45.00;34.47;;;;;;;;;;2080870;28;20180;-51
2021/08/20 02:03:32;;;;;;;54.42;35.38;;;;;;;;;;2080832;28;20168;-49
2021/08/20 02:04:32;;;;;;;48.35;34.40;;;;;;;;;;2073103;28;20607;-52
2021/08/20 02:05:33;;;;;;;50.80;35.80;;;;;;;;;;2071562;28;20573;-50
2021/08/20 02:06:36;;;;;;;49.50;34.20;;;;;;;;;;2080379;28;20600;-47
2021/08/20 02:07:40;;;;;;;46.22;33.72;;;;;;;;;;2072296;28;20224;-48
2021/08/20 02:08:41;;;;;;;45.92;31.25;;;;;;;;;;2081436;23;20327;-51
2021/08/20 02:09:41;;;;;;;45.58;34.28;;;;;;;;;;2069823;28;20177;-52
2021/08/20 02:10:41;;;;;;;42.88;32.42;;;;;;;;;;2064103;28;20214;-58
2021/08/20 02:11:41;;;;;;;43.20;32.05;;;;;;;;;;2071183;28;20620;-55
2021/08/20 02:12:43;;;;;;;40.78;31.67;;;;;;;;;;2073186;28;20177;-53
2021/08/20 02:13:44;;;;;;;41.53;31.15;;;;;;;;;;2072391;28;20566;-53
2021/08/20 02:14:44;;;;;;;40.30;31.98;;;;;;;;;;2072381;28;20201;-51
2021/08/20 02:15:44;;;;;;;43.10;32.83;;;;;;;;;;2080769;28;20180;-53
2021/08/20 02:16:44;;;;;;;44.20;31.13;;;;;;;;;;2072455;28;20180;-49
2021/08/20 02:17:50;;;;;;;39.63;30.58;;;;;;;;;;2064426;28;20281;-54
2021/08/20 02:18:52;;;;;;;38.60;31.08;;;;;;;;;;2062890;28;20209;-56
2021/08/20 02:19:55;;;;;;;36.83;30.40;;;;;;;;;;2056653;28;20166;-50
2021/08/20 02:20:58;;;;;;;44.60;33.35;;;;;;;;;;2064810;28;20178;-55
2021/08/20 02:22:02;;;;;;;39.30;29.50;;;;;;;;;;2069082;28;20193;-51
2021/08/20 02:23:15;;;;;;;41.85;30.35;;;;;;;;;;2060043;28;20173;-51
2021/08/20 02:24:19;;;;;;;45.05;30.88;;;;;;;;;;2057510;28;20166;-51
2021/08/20 02:25:22;;;;;;;38.15;30.13;;;;;;;;;;2067484;28;20897;-54
2021/08/20 02:26:24;;;;;;;42.05;30.65;;;;;;;;;;2064538;28;20567;-53
2021/08/20 02:27:24;;;;;;;39.63;29.92;;;;;;;;;;2056006;28;20198;-53
2021/08/20 02:28:31;;;;;;;37.85;29.58;;;;;;;;;;2056700;28;20216;-54
2021/08/20 02:29:33;;;;;;;36.97;28.40;;;;;;;;;;2059681;28;20563;-48
2021/08/20 02:30:38;;;;;;;42.78;28.95;;;;;;;;;;2071430;28;20200;-52
2021/08/20 02:31:42;;;;;;;38.85;30.25;;;;;;;;;;2070204;28;20258;-50
2021/08/20 02:32:46;;;;;;;37.58;29.70;;;;;;;;;;2066530;28;20170;-49
2021/08/20 02:33:49;;;;;;;39.38;30.55;;;;;;;;;;2072480;28;20173;-51
2021/08/20 02:34:50;;;;;;;36.85;28.70;;;;;;;;;;2058808;28;20194;-51
2021/08/20 02:35:51;;;;;;;38.67;29.73;;;;;;;;;;2062841;28;20174;-51
2021/08/20 02:36:52;;;;;;;39.28;30.05;;;;;;;;;;2072899;28;20169;-52
2021/08/20 02:37:53;;;;;;;37.08;29.42;;;;;;;;;;2060113;28;20204;-57
2021/08/20 02:38:54;;;;;;;36.03;28.58;;;;;;;;;;2055871;28;20597;-53
2021/08/20 02:39:54;;;;;;;39.22;28.70;;;;;;;;;;2059589;28;20312;-56
2021/08/20 02:40:54;;;;;;;35.50;29.05;;;;;;;;;;2072563;28;20232;-49
2021/08/20 02:41:55;;;;;;;33.70;27.05;;;;;;;;;;2056423;28;20285;-52
2021/08/20 02:42:55;;;;;;;37.45;29.23;;;;;;;;;;2056401;28;20221;-50
2021/08/20 02:43:56;;;;;;;36.20;28.17;;;;;;;;;;2053153;28;20182;-53
2021/08/20 02:44:56;;;;;;;38.75;29.42;;;;;;;;;;2051619;28;20189;-52
2021/08/20 02:45:56;;;;;;;40.17;29.55;;;;;;;;;;2064258;28;20185;-53
2021/08/20 02:46:58;;;;;;;35.75;29.35;;;;;;;;;;2064400;28;20187;-52
2021/08/20 02:47:59;;;;;;;38.72;29.98;;;;;;;;;;2063918;28;20170;-52
2021/08/20 02:48:59;;;;;;;36.10;27.95;;;;;;;;;;2063602;28;20813;-54
2021/08/20 02:50:01;;;;;;;35.40;28.58;;;;;;;;;;2055174;28;20170;-50
2021/08/20 02:51:01;;;;;;;35.85;28.25;;;;;;;;;;2064902;28;20181;-52
2021/08/20 02:52:05;;;;;;;38.53;28.83;;;;;;;;;;2064172;28;20235;-53
2021/08/20 02:53:09;;;;;;;41.55;29.92;;;;;;;;;;2065060;28;20181;-51
2021/08/20 02:54:11;;;;;;;38.35;29.25;;;;;;;;;;2064461;28;20182;-53
2021/08/20 02:55:11;;;;;;;35.78;30.17;;;;;;;;;;2063572;28;20701;-51
2021/08/20 02:56:14;;;;;;;39.95;29.58;;;;;;;;;;2070730;28;20173;-52
2021/08/20 02:57:29;;;;;;;38.60;29.70;;;;;;;;;;2058315;28;20666;-54
2021/08/20 02:58:30;;;;;;;36.83;28.80;;;;;;;;;;2051492;28;20203;-52
2021/08/20 02:59:34;;;;;;;36.67;29.35;;;;;;;;;;2063730;28;20638;-53
2021/08/20 03:00:37;;;;;;;40.63;31.05;;;;;;;;;;2051856;28;20163;-49
2021/08/20 03:01:38;;;;;;;43.45;30.73;;;;;;;;;;2060720;28;20269;-49
2021/08/20 03:02:48;;;;;;;41.20;30.42;;;;;;;;;;2059260;28;20190;-50
2021/08/20 03:03:48;;;;;;;43.97;30.75;;;;;;;;;;2064450;28;20197;-50
2021/08/20 03:04:55;;;;;;;42.60;31.42;;;;;;;;;;2065583;28;20708;-49
2021/08/20 03:05:56;;;;;;;40.67;30.70;;;;;;;;;;2065454;28;20190;-54
2021/08/20 03:06:56;;;;;;;40.35;30.52;;;;;;;;;;2060522;28;20178;-48
2021/08/20 03:08:05;;;;;;;40.08;30.88;;;;;;;;;;2068955;28;20208;-50
2021/08/20 03:09:07;;;;;;;41.53;31.48;;;;;;;;;;2067358;28;20229;-53
2021/08/20 03:10:11;;;;;;;44.17;31.30;;;;;;;;;;2067418;28;20260;-52
2021/08/20 03:11:12;;;;;;;38.85;28.98;;;;;;;;;;2064891;28;20296;-51
2021/08/20 03:12:14;;;;;;;40.53;30.38;;;;;;;;;;2054459;28;20221;-50
2021/08/20 03:13:24;;;;;;;44.35;32.50;;;;;;;;;;2072086;28;20172;-53
2021/08/20 03:14:29;;;;;;;42.38;32.38;;;;;;;;;;2064159;28;20665;-51
2021/08/20 03:15:29;;;;;;;41.40;31.75;;;;;;;;;;2064905;28;20216;-53
2021/08/20 03:16:33;;;;;;;42.45;30.30;;;;;;;;;;2072641;28;20207;-54
2021/08/20 03:17:37;;;;;;;38.05;29.52;;;;;;;;;;2070559;28;20260;-50
2021/08/20 03:18:42;;;;;;;41.03;31.00;;;;;;;;;;2070990;28;20276;-56
2021/08/20 03:19:47;;;;;;;42.80;32.63;;;;;;;;;;2077765;28;20226;-55
2021/08/20 03:20:48;;;;;;;45.72;32.22;;;;;;;;;;2072572;28;20602;-54
2021/08/20 03:21:58;;;;;;;39.97;30.55;;;;;;;;;;2071097;28;20169;-51
2021/08/20 03:23:00;;;;;;;41.70;31.63;;;;;;;;;;2072941;28;20169;-52
2021/08/20 03:24:02;;;;;;;44.33;32.20;;;;;;;;;;2064074;28;20170;-54
2021/08/20 03:25:07;;;;;;;42.38;32.22;;;;;;;;;;2057253;28;20714;-52
2021/08/20 03:26:09;;;;;;;38.33;31.65;;;;;;;;;;2064967;28;20169;-51
2021/08/20 03:27:19;;;;;;;45.67;32.80;;;;;;;;;;2064004;28;20189;-55
2021/08/20 03:28:33;;;;;;;47.58;31.83;;;;;;;;;;2063617;28;20260;-53
2021/08/20 03:29:34;;;;;;;47.17;31.88;;;;;;;;;;2070994;28;20223;-54
2021/08/20 03:30:49;;;;;;;42.63;31.83;;;;;;;;;;2073523;28;20164;-53
2021/08/20 03:31:50;;;;;;;43.78;33.08;;;;;;;;;;2072068;28;20207;-52
2021/08/20 03:32:50;;;;;;;44.95;32.65;;;;;;;;;;2080259;28;20172;-54
2021/08/20 03:33:50;;;;;;;40.83;30.20;;;;;;;;;;2078962;28;20263;-52
2021/08/20 03:34:54;;;;;;;42.60;31.27;;;;;;;;;;2072068;28;20192;-52
2021/08/20 03:35:55;;;;;;;45.15;31.77;;;;;;;;;;2072383;28;20220;-55
2021/08/20 03:36:57;;;;;;;41.83;30.02;;;;;;;;;;2070961;28;20177;-52
2021/08/20 03:38:06;;;;;;;41.05;30.50;;;;;;;;;;2069772;28;20268;-54
2021/08/20 03:39:08;;;;;;;40.28;29.48;;;;;;;;;;2065487;28;20200;-52
2021/08/20 03:40:09;;;;;;;38.08;28.45;;;;;;;;;;2055899;28;20245;-52
2021/08/20 03:41:15;;;;;;;40.53;30.23;;;;;;;;;;2063296;28;20181;-51
2021/08/20 03:42:33;;;;;;;43.42;30.60;;;;;;;;;;2064464;28;20719;-53
2021/08/20 03:43:53;;;;;;;37.35;28.15;;;;;;;;;;2063411;28;20189;-52
2021/08/20 03:44:55;;;;;;;40.28;29.63;;;;;;;;;;2075036;28;20260;-51
2021/08/20 03:45:56;;;;;;;39.30;30.00;;;;;;;;;;2064094;28;20181;-51
2021/08/20 03:47:07;;;;;;;39.42;29.23;;;;;;;;;;2063447;28;20264;-53
2021/08/20 03:48:07;;;;;;;37.53;29.63;;;;;;;;;;2064397;28;20173;-55
2021/08/20 03:49:08;;;;;;;40.78;29.90;;;;;;;;;;2071343;28;20738;-52
2021/08/20 03:50:08;;;;;;;39.08;29.48;;;;;;;;;;2062496;28;20188;-53
2021/08/20 03:51:13;;;;;;;36.92;28.88;;;;;;;;;;2055817;28;20602;-52
2021/08/20 03:52:13;;;;;;;38.85;30.67;;;;;;;;;;2053847;28;20210;-54
2021/08/20 03:53:15;;;;;;;36.28;29.80;;;;;;;;;;2063833;28;20177;-51
2021/08/20 03:54:17;;;;;;;41.15;29.52;;;;;;;;;;2063201;28;20166;-57
2021/08/20 03:55:18;;;;;;;42.58;31.20;;;;;;;;;;2055690;28;20620;-56
2021/08/20 03:56:38;;;;;;;37.80;28.38;;;;;;;;;;2063415;28;20220;-56
2021/08/20 03:57:52;;;;;;;39.97;30.30;;;;;;;;;;2075262;28;20683;-57
2021/08/20 03:58:58;;;;;;;38.58;28.58;;;;;;;;;;2073072;28;20177;-55
2021/08/20 04:00:00;;;;;;;37.47;29.40;;;;;;;;;;2071617;28;20173;-53
2021/08/20 04:01:00;;;;;;;37.85;29.55;;;;;;;;;;2066627;28;20205;-52
2021/08/20 04:02:03;;;;;;;38.00;28.33;;;;;;;;;;2062995;28;20204;-51
2021/08/20 04:03:04;;;;;;;38.08;28.95;;;;;;;;;;2060163;28;20179;-51
2021/08/20 04:04:04;;;;;;;41.20;29.27;;;;;;;;;;2059224;28;20233;-54
2021/08/20 04:05:12;;;;;;;36.45;27.55;;;;;;;;;;2055741;28;20163;-49
2021/08/20 04:06:24;;;;;;;34.67;28.67;;;;;;;;;;2055507;28;20178;-50
2021/08/20 04:07:27;;;;;;;36.80;28.70;;;;;;;;;;2052965;28;20256;-50
2021/08/20 04:08:50;;;;;;;38.38;28.98;;;;;;;;;;2059823;28;20243;-50
2021/08/20 04:10:11;;;;;;;38.45;27.77;;;;;;;;;;2064202;28;20173;-52
2021/08/20 04:11:30;;;;;;;39.67;29.38;;;;;;;;;;2057438;28;20245;-56
2021/08/20 04:12:39;;;;;;;38.25;28.80;;;;;;;;;;2064136;28;20253;-53
2021/08/20 04:14:03;;;;;;;41.25;28.85;;;;;;;;;;2060226;28;20183;-51
2021/08/20 04:15:04;;;;;;;34.97;28.95;;;;;;;;;;2063603;28;20260;-54
2021/08/20 04:16:05;;;;;;;34.78;27.27;;;;;;;;;;2063600;28;20174;-52
2021/08/20 04:17:06;;;;;;;40.38;30.80;;;;;;;;;;2051645;28;20331;-53
2021/08/20 04:18:09;;;;;;;43.60;28.83;;;;;;;;;;2052995;28;20201;-51
2021/08/20 04:19:10;;;;;;;38.65;30.02;;;;;;;;;;2054658;28;20198;-51
2021/08/20 04:20:10;;;;;;;39.03;29.80;;;;;;;;;;2057693;28;20167;-54
2021/08/20 04:21:11;;;;;;;38.22;29.50;;;;;;;;;;2056352;28;20177;-52
2021/08/20 04:22:13;;;;;;;38.92;28.98;;;;;;;;;;2056676;28;20813;-51
2021/08/20 04:23:13;;;;;;;40.28;29.92;;;;;;;;;;2060668;28;20169;-53
2021/08/20 04:24:18;;;;;;;43.10;29.60;;;;;;;;;;2070656;28;20184;-57
2021/08/20 04:25:21;;;;;;;38.92;29.67;;;;;;;;;;2055388;28;20194;-52
2021/08/20 04:26:50;;;;;;;43.45;30.92;;;;;;;;;;2059305;28;20559;-53
2021/08/20 04:28:09;;;;;;;37.38;29.30;;;;;;;;;;2071689;28;20169;-53
2021/08/20 04:29:14;;;;;;;38.85;29.83;;;;;;;;;;2068616;28;20201;-51
2021/08/20 04:30:39;;;;;;;41.72;30.02;;;;;;;;;;2063928;28;20309;-52
2021/08/20 04:31:58;;;;;;;44.88;30.38;;;;;;;;;;2064924;28;20173;-53
2021/08/20 04:33:24;;;;;;;38.72;29.30;;;;;;;;;;2062753;28;20708;-54
2021/08/20 04:34:43;;;;;;;39.20;30.05;;;;;;;;;;2059041;28;20616;-51
2021/08/20 04:36:08;;;;;;;41.22;30.77;;;;;;;;;;2077000;28;20173;-55
2021/08/20 04:37:24;;;;;;;40.80;29.45;;;;;;;;;;2064730;28;20208;-53
2021/08/20 04:38:27;;;;;;;43.70;31.30;;;;;;;;;;2063697;28;20235;-52
2021/08/20 04:39:47;;;;;;;42.42;30.38;;;;;;;;;;2065632;28;20173;-51
2021/08/20 04:41:07;;;;;;;40.85;31.35;;;;;;;;;;2064536;28;20223;-54
2021/08/20 04:42:13;;;;;;;42.45;32.58;;;;;;;;;;2080856;28;20227;-52
2021/08/20 04:43:25;;;;;;;44.88;31.50;;;;;;;;;;2078898;28;20203;-53
2021/08/20 04:44:40;;;;;;;41.50;31.08;;;;;;;;;;2064986;28;20255;-51
2021/08/20 04:45:46;;;;;;;44.10;32.50;;;;;;;;;;2060008;28;20185;-52
2021/08/20 04:47:05;;;;;;;43.88;30.92;;;;;;;;;;2068141;28;20661;-56
2021/08/20 04:48:23;;;;;;;40.53;31.17;;;;;;;;;;2072182;28;20171;-53
2021/08/20 04:49:44;;;;;;;44.65;31.20;;;;;;;;;;2064453;28;20178;-52
2021/08/20 04:51:08;;;;;;;42.88;31.75;;;;;;;;;;2053990;28;20323;-51
2021/08/20 04:52:15;;;;;;;41.55;32.33;;;;;;;;;;2064496;28;20177;-55
2021/08/20 04:53:39;;;;;;;41.38;31.70;;;;;;;;;;2064152;28;20173;-55
2021/08/20 04:54:58;;;;;;;42.22;32.13;;;;;;;;;;2066167;28;20596;-55
2021/08/20 04:55:59;;;;;;;46.00;34.22;;;;;;;;;;2072321;28;20173;-51
2021/08/20 04:56:59;;;;;;;51.90;32.67;;;;;;;;;;2072209;28;20188;-52
2021/08/20 04:57:59;;;;;;;55.63;34.20;;;;;;;;;;2063142;28;20177;-55
2021/08/20 04:59:00;;;;;;;45.88;34.25;;;;;;;;;;2063618;28;20233;-53
2021/08/20 05:00:00;;;;;;;47.90;34.13;;;;;;;;;;2064756;28;20176;-53
2021/08/20 05:01:00;;;;;;;51.67;33.25;;;;;;;;;;2062270;28;20183;-50
2021/08/20 05:02:01;;;;;;;46.67;34.40;;;;;;;;;;2059866;28;20307;-52
2021/08/20 05:03:02;;;;;;;45.95;33.35;;;;;;;;;;2067517;28;20170;-56
2021/08/20 05:04:02;;;;;;;46.95;33.17;;;;;;;;;;2062834;28;20178;-54
2021/08/20 05:05:06;;;;;;;45.85;33.55;;;;;;;;;;2070546;28;20187;-52
2021/08/20 05:06:06;;;;;;;45.50;33.67;;;;;;;;;;2071163;28;20196;-54
2021/08/20 05:07:06;;;;;;;45.38;32.95;;;;;;;;;;2063515;28;20326;-52
2021/08/20 05:08:07;;;;;;;49.05;34.85;;;;;;;;;;2063068;28;20162;-54
2021/08/20 05:09:08;;;;;;;49.70;33.63;;;;;;;;;;2071232;28;20228;-55
2021/08/20 05:10:11;;;;;;;50.90;33.63;;;;;;;;;;2063947;28;20182;-51
2021/08/20 05:11:12;;;;;;;48.65;33.25;;;;;;;;;;2072158;28;20862;-51
2021/08/20 05:12:13;;;;;;;45.42;32.80;;;;;;;;;;2063799;28;20193;-54
2021/08/20 05:13:13;;;;;;;49.70;34.25;;;;;;;;;;2054003;28;20202;-51
2021/08/20 05:14:14;;;;;;;48.50;35.60;;;;;;;;;;2064269;28;20248;-52
2021/08/20 05:15:15;;;;;;;49.63;35.85;;;;;;;;;;2062963;28;20332;-53
2021/08/20 05:16:15;;;;;;;48.42;34.40;;;;;;;;;;2060363;28;20182;-52
2021/08/20 05:17:15;;;;;;;50.53;34.35;;;;;;;;;;2063741;28;20201;-51
2021/08/20 05:18:15;;;;;;;49.38;35.63;;;;;;;;;;2061583;28;20200;-55
2021/08/20 05:19:16;;;;;;;50.63;34.58;;;;;;;;;;2059904;28;20268;-52
2021/08/20 05:20:16;;;;;;;48.78;35.88;;;;;;;;;;2056167;28;20269;-51
2021/08/20 05:21:16;;;;;;;47.05;35.35;;;;;;;;;;2069949;28;20200;-51
2021/08/20 05:22:16;;;;;;;51.22;35.85;;;;;;;;;;2070980;28;20181;-50
2021/08/20 05:23:17;;;;;;;47.17;35.65;;;;;;;;;;2077704;28;20557;-50
2021/08/20 05:24:17;;;;;;;46.78;34.88;;;;;;;;;;2073351;28;20168;-54
2021/08/20 05:25:18;;;;;;;52.28;36.28;;;;;;;;;;2061423;28;20233;-52
2021/08/20 05:26:18;;;;;;;49.90;35.70;;;;;;;;;;2065563;28;20248;-53
2021/08/20 05:27:18;;;;;;;51.03;35.22;;;;;;;;;;2068285;28;20185;-51
2021/08/20 05:28:20;;;;;;;48.88;35.58;;;;;;;;;;2067137;28;20176;-53
2021/08/20 05:29:20;;;;;;;45.78;34.22;;;;;;;;;;2068095;28;20196;-54
2021/08/20 05:30:20;;;;;;;48.45;34.83;;;;;;;;;;2070813;28;20272;-56
2021/08/20 05:31:21;;;;;;;47.35;34.35;;;;;;;;;;2071950;28;20196;-52
2021/08/20 05:32:21;;;;;;;49.58;34.65;;;;;;;;;;2067867;28;20169;-53
2021/08/20 05:33:21;;;;;;;48.88;34.63;;;;;;;;;;2067258;28;20181;-51
2021/08/20 05:34:21;;;;;;;48.05;34.70;;;;;;;;;;2070804;28;20169;-52
2021/08/20 05:35:22;;;;;;;50.47;35.03;;;;;;;;;;2063942;28;20174;-51
2021/08/20 05:36:22;;;;;;;50.72;35.13;;;;;;;;;;2061886;28;20174;-53
2021/08/20 05:37:22;;;;;;;45.63;34.65;;;;;;;;;;2070396;28;20254;-51
2021/08/20 05:38:22;;;;;;;49.65;34.33;;;;;;;;;;2075250;28;20340;-54
2021/08/20 05:39:23;;;;;;;50.05;34.17;;;;;;;;;;2074406;28;20182;-52
2021/08/20 05:40:23;;;;;;;45.85;33.92;;;;;;;;;;2070728;28;20208;-54
2021/08/20 05:41:23;;;;;;;47.28;32.65;;;;;;;;;;2069252;28;20192;-50
2021/08/20 05:42:23;;;;;;;48.83;34.75;;;;;;;;;;2067880;28;20158;-48
2021/08/20 05:43:24;;;;;;;47.40;33.65;;;;;;;;;;2067804;28;20186;-52
2021/08/20 05:44:24;;;;;;;47.95;34.13;;;;;;;;;;2071927;28;20202;-53
2021/08/20 05:45:24;;;;;;;50.30;35.15;;;;;;;;;;2067217;28;20220;-55
2021/08/20 05:46:25;;;;;;;50.10;35.90;;;;;;;;;;2066978;28;20257;-52
2021/08/20 05:47:25;;;;;;;49.22;34.83;;;;;;;;;;2064280;28;20177;-55
2021/08/20 05:48:25;;;;;;;49.60;35.42;;;;;;;;;;2055040;28;20175;-52
2021/08/20 05:49:26;;;;;;;47.20;35.13;;;;;;;;;;2057399;28;20175;-52
2021/08/20 05:50:26;;;;;;;48.60;35.08;;;;;;;;;;2067093;28;20180;-52
2021/08/20 05:51:26;;;;;;;42.53;33.50;;;;;;;;;;2074218;28;20688;-52
2021/08/20 05:52:26;;;;;;;44.00;32.28;;;;;;;;;;2074156;28;20153;-50
2021/08/20 05:53:27;;;;;;;42.90;33.90;;;;;;;;;;2063150;28;20636;-55
2021/08/20 05:54:27;;;;;;;44.55;33.88;;;;;;;;;;2072324;28;20224;-52
2021/08/20 05:55:30;;;;;;;47.47;31.98;;;;;;;;;;2081286;28;20571;-52
2021/08/20 05:56:31;;;;;;;42.42;32.00;;;;;;;;;;2065930;28;20196;-51
2021/08/20 05:57:31;;;;;;;44.13;31.02;;;;;;;;;;2063317;28;20216;-54
2021/08/20 05:58:31;;;;;;;41.83;30.92;;;;;;;;;;2063736;28;20176;-53
2021/08/20 05:59:31;;;;;;;44.90;30.48;;;;;;;;;;2060473;28;20654;-54
2021/08/20 06:00:32;;;;;;;40.05;31.63;;;;;;;;;;2064086;28;20181;-50
2021/08/20 06:01:39;;;;;;;41.00;30.45;;;;;;;;;;2076361;28;20269;-47
2021/08/20 06:02:40;;;;;;;41.55;29.88;;;;;;;;;;2069198;28;20189;-57
2021/08/20 06:03:41;;;;;;;45.25;31.33;;;;;;;;;;2065652;28;20192;-53
2021/08/20 06:04:57;;;;;;;39.50;30.27;;;;;;;;;;2071884;28;20299;-51
2021/08/20 06:05:57;;;;;;;40.15;30.23;;;;;;;;;;2069948;28;20169;-53
2021/08/20 06:07:00;;;;;;;39.20;30.40;;;;;;;;;;2065793;28;20182;-55